createdAt,value
2022-09-26T00:01:25.878Z,26.70
2022-09-26T00:03:56.136Z,28.67
2022-09-26T00:06:23.602Z,28.73
2022-09-26T00:08:50.889Z,27.98
2022-09-26T00:11:26.966Z,30.40
2022-09-26T00:13:56.580Z,30.25
2022-09-26T00:16:24.339Z,34.92
2022-09-26T00:18:52.602Z,27.60
2022-09-26T00:21:20.208Z,28.23
2022-09-26T00:23:47.738Z,27.08
2022-09-26T00:26:16.052Z,29.25
2022-09-26T00:28:42.865Z,27.60
2022-09-26T00:31:13.231Z,27.58
2022-09-26T00:33:40.155Z,28.70
2022-09-26T00:36:07.261Z,27.17
2022-09-26T00:38:34.564Z,26.30
2022-09-26T00:41:02.095Z,27.27
2022-09-26T00:43:44.008Z,28.52
2022-09-26T00:46:27.574Z,27.35
2022-09-26T00:49:16.115Z,27.52
2022-09-26T00:51:47.177Z,26.98
2022-09-26T00:54:16.892Z,27.33
2022-09-26T00:56:45.689Z,25.92
2022-09-26T00:59:29.580Z,26.10
2022-09-26T01:01:58.862Z,26.00
2022-09-26T01:04:31.510Z,24.85
2022-09-26T01:07:01.528Z,25.15
2022-09-26T01:09:29.320Z,23.27
2022-09-26T01:11:57.000Z,23.25
2022-09-26T01:14:25.038Z,21.83
2022-09-26T01:16:53.240Z,21.88
2022-09-26T01:19:32.112Z,21.70
2022-09-26T01:22:20.834Z,21.92
2022-09-26T01:25:12.428Z,22.17
2022-09-26T01:28:04.235Z,21.75
2022-09-26T01:30:44.322Z,21.42
2022-09-26T01:33:32.988Z,21.98
2022-09-26T01:36:11.720Z,21.67
2022-09-26T01:38:51.257Z,22.33
2022-09-26T01:41:44.405Z,21.75
2022-09-26T01:44:44.133Z,22.30
2022-09-26T01:47:23.999Z,22.10
2022-09-26T01:50:15.371Z,21.10
2022-09-26T01:52:56.300Z,22.63
2022-09-26T01:55:37.513Z,21.50
2022-09-26T01:58:23.966Z,22.73
2022-09-26T02:00:52.352Z,23.17
2022-09-26T02:03:26.010Z,23.83
2022-09-26T02:06:08.002Z,23.30
2022-09-26T02:08:42.089Z,22.90
2022-09-26T02:11:13.789Z,23.77
2022-09-26T02:13:59.014Z,25.63
2022-09-26T02:16:37.451Z,25.20
2022-09-26T02:19:27.665Z,24.23
2022-09-26T02:21:55.824Z,20.20
2022-09-26T02:24:23.612Z,23.67
2022-09-26T02:26:51.721Z,24.38
2022-09-26T02:29:21.449Z,24.40
2022-09-26T02:32:15.974Z,24.35
2022-09-26T02:34:45.842Z,24.65
2022-09-26T02:37:14.587Z,24.08
2022-09-26T02:39:43.685Z,24.27
2022-09-26T02:45:08.961Z,21.97
2022-09-26T02:47:59.551Z,21.98
2022-09-26T02:51:03.200Z,20.30
2022-09-26T02:54:11.890Z,23.33
2022-09-26T02:57:01.528Z,24.33
2022-09-26T03:00:07.244Z,24.00
2022-09-26T03:02:45.798Z,19.60
2022-09-26T03:05:21.091Z,22.90
2022-09-26T03:07:51.654Z,22.85
2022-09-26T03:10:19.597Z,19.52
2022-09-26T03:12:49.401Z,21.40
2022-09-26T03:15:17.868Z,21.80
2022-09-26T03:17:49.894Z,21.08
2022-09-26T03:20:21.579Z,22.48
2022-09-26T03:22:50.396Z,22.10
2022-09-26T03:25:22.553Z,22.05
2022-09-26T03:27:57.207Z,21.80
2022-09-26T03:30:24.458Z,22.08
2022-09-26T03:33:11.398Z,23.85
2022-09-26T03:35:38.047Z,21.92
2022-09-26T03:38:04.703Z,22.40
2022-09-26T03:40:36.710Z,22.25
2022-09-26T03:43:24.426Z,23.83
2022-09-26T03:48:24.245Z,24.08
2022-09-26T03:50:50.993Z,23.50
2022-09-26T03:53:17.697Z,23.50
2022-09-26T03:55:44.930Z,21.45
2022-09-26T03:58:11.689Z,22.42
2022-09-26T04:00:39.849Z,23.15
2022-09-26T04:03:07.372Z,22.90
2022-09-26T04:05:38.444Z,22.42
2022-09-26T04:08:06.162Z,23.30
2022-09-26T04:10:34.249Z,24.75
2022-09-26T04:13:01.201Z,26.50
2022-09-26T04:15:29.480Z,24.05
2022-09-26T04:18:05.381Z,25.27
2022-09-26T04:20:32.146Z,25.38
2022-09-26T04:23:00.398Z,25.83
2022-09-26T04:25:27.184Z,23.88
2022-09-26T04:27:53.847Z,24.20
2022-09-26T04:30:21.649Z,25.20
2022-09-26T04:32:54.121Z,25.35
2022-09-26T04:35:35.882Z,23.27
2022-09-26T04:38:03.164Z,26.02
2022-09-26T04:40:30.474Z,24.60
2022-09-26T04:43:06.761Z,25.63
2022-09-26T04:45:33.663Z,23.58
2022-09-26T04:48:01.631Z,24.90
2022-09-26T04:50:48.200Z,24.90
2022-09-26T04:53:14.961Z,24.25
2022-09-26T04:56:03.031Z,22.42
2022-09-26T04:58:31.790Z,22.55
2022-09-26T05:01:06.479Z,22.67
2022-09-26T05:03:50.766Z,20.95
2022-09-26T05:06:18.450Z,22.55
2022-09-26T05:08:48.574Z,22.65
2022-09-26T05:11:21.586Z,24.30
2022-09-26T05:13:53.552Z,23.70
2022-09-26T05:16:22.230Z,22.65
2022-09-26T05:18:52.867Z,23.58
2022-09-26T05:21:19.951Z,23.90
2022-09-26T05:24:05.389Z,24.35
2022-09-26T05:26:32.059Z,23.75
2022-09-26T05:29:06.815Z,23.02
2022-09-26T05:32:04.398Z,25.17
2022-09-26T05:34:36.449Z,24.35
2022-09-26T05:37:04.641Z,25.10
2022-09-26T05:39:50.981Z,24.58
2022-09-26T05:42:19.150Z,25.20
2022-09-26T05:44:45.788Z,25.17
2022-09-26T05:47:13.747Z,24.15
2022-09-26T05:49:40.424Z,24.70
2022-09-26T05:52:09.919Z,26.15
2022-09-26T05:54:36.988Z,25.88
2022-09-26T05:57:16.236Z,26.85
2022-09-26T05:59:52.259Z,25.75
2022-09-26T06:02:25.395Z,25.52
2022-09-26T06:05:09.314Z,26.52
2022-09-26T06:07:54.220Z,25.80
2022-09-26T06:10:40.248Z,25.20
2022-09-26T06:13:07.825Z,24.45
2022-09-26T06:15:52.824Z,24.48
2022-09-26T06:18:20.466Z,24.80
2022-09-26T06:20:47.193Z,23.58
2022-09-26T06:23:13.958Z,23.85
2022-09-26T06:25:43.357Z,24.42
2022-09-26T06:28:10.040Z,24.73
2022-09-26T06:30:37.023Z,24.23
2022-09-26T06:33:11.612Z,24.42
2022-09-26T06:36:10.009Z,24.48
2022-09-26T06:38:38.547Z,24.35
2022-09-26T06:41:09.441Z,23.23
2022-09-26T06:43:36.263Z,23.45
2022-09-26T06:46:11.446Z,23.67
2022-09-26T06:48:58.260Z,22.73
2022-09-26T06:52:00.740Z,22.25
2022-09-26T06:54:27.519Z,23.83
2022-09-26T06:56:54.354Z,22.95
2022-09-26T06:59:21.027Z,22.75
2022-09-26T07:01:54.332Z,22.63
2022-09-26T07:04:39.628Z,22.38
2022-09-26T07:07:30.400Z,22.77
2022-09-26T07:09:57.940Z,23.10
2022-09-26T07:12:47.192Z,23.42
2022-09-26T07:15:18.265Z,23.33
2022-09-26T07:17:48.100Z,24.10
2022-09-26T07:20:38.178Z,24.30
2022-09-26T07:23:23.926Z,23.77
2022-09-26T07:25:52.082Z,22.67
2022-09-26T07:28:19.215Z,22.40
2022-09-26T07:30:48.885Z,22.75
2022-09-26T07:33:26.189Z,22.27
2022-09-26T07:35:55.754Z,23.77
2022-09-26T07:38:22.629Z,23.20
2022-09-26T07:40:54.391Z,23.15
2022-09-26T07:43:30.810Z,22.77
2022-09-26T07:46:27.119Z,22.33
2022-09-26T07:49:14.710Z,22.58
2022-09-26T07:52:08.719Z,23.00
2022-09-26T07:55:14.209Z,21.90
2022-09-26T07:57:51.155Z,23.42
2022-09-26T08:00:31.501Z,21.55
2022-09-26T08:03:18.652Z,21.55
2022-09-26T08:05:45.478Z,20.30
2022-09-26T08:08:12.155Z,22.00
2022-09-26T08:11:03.506Z,21.45
2022-09-26T08:13:55.306Z,21.88
2022-09-26T08:16:47.859Z,22.13
2022-09-26T08:19:17.474Z,21.50
2022-09-26T08:21:44.967Z,21.88
2022-09-26T08:24:11.656Z,20.80
2022-09-26T08:26:55.789Z,21.58
2022-09-26T08:29:26.979Z,22.33
2022-09-26T08:31:55.038Z,22.10
2022-09-26T08:34:25.391Z,21.30
2022-09-26T08:37:11.685Z,21.50
2022-09-26T08:39:57.859Z,22.42
2022-09-26T08:43:15.742Z,21.73
2022-09-26T08:46:45.223Z,22.20
2022-09-26T08:49:40.078Z,21.65
2022-09-26T08:52:22.068Z,21.90
2022-09-26T08:54:51.331Z,21.17
2022-09-26T08:57:34.092Z,21.63
2022-09-26T09:00:10.142Z,21.10
2022-09-26T09:02:58.055Z,20.98
2022-09-26T09:05:35.645Z,20.85
2022-09-26T09:08:08.058Z,21.10
2022-09-26T09:11:08.702Z,19.02
2022-09-26T09:13:48.225Z,20.95
2022-09-26T09:16:51.696Z,19.73
2022-09-26T09:20:00.591Z,19.38
2022-09-26T09:23:17.833Z,18.70
2022-09-26T09:25:55.510Z,19.40
2022-09-26T09:28:38.934Z,19.70
2022-09-26T09:31:11.534Z,19.58
2022-09-26T09:34:04.076Z,18.95
2022-09-26T09:37:07.552Z,19.02
2022-09-26T09:40:22.436Z,18.90
2022-09-26T09:43:41.359Z,19.38
2022-09-26T09:46:28.907Z,18.35
2022-09-26T09:49:07.917Z,19.45
2022-09-26T09:52:02.784Z,18.83
2022-09-26T09:54:51.278Z,20.25
2022-09-26T09:57:36.680Z,19.60
2022-09-26T10:00:18.241Z,18.92
2022-09-26T10:03:37.884Z,18.80
2022-09-26T10:06:05.634Z,18.05
2022-09-26T10:08:41.814Z,17.55
2022-09-26T10:11:41.873Z,17.60
2022-09-26T10:14:34.225Z,17.05
2022-09-26T10:17:09.968Z,17.25
2022-09-26T10:19:52.329Z,16.30
2022-09-26T10:22:29.445Z,17.10
2022-09-26T10:25:08.561Z,16.65
2022-09-26T10:27:38.256Z,16.03
2022-09-26T10:30:05.203Z,15.25
2022-09-26T10:32:45.722Z,15.80
2022-09-26T10:35:46.163Z,16.58
2022-09-26T10:38:22.069Z,16.20
2022-09-26T10:41:01.913Z,16.00
2022-09-26T10:43:37.972Z,16.40
2022-09-26T10:46:23.623Z,16.67
2022-09-26T10:49:15.894Z,16.35
2022-09-26T10:52:23.729Z,15.63
2022-09-26T10:55:12.308Z,16.20
2022-09-26T10:57:57.509Z,16.27
2022-09-26T11:00:37.947Z,15.65
2022-09-26T11:03:18.087Z,16.10
2022-09-26T11:06:03.552Z,15.88
2022-09-26T11:08:34.976Z,15.60
2022-09-26T11:11:31.433Z,15.90
2022-09-26T11:14:08.496Z,14.82
2022-09-26T11:16:56.113Z,15.80
2022-09-26T11:19:54.862Z,14.90
2022-09-26T11:22:41.549Z,14.30
2022-09-26T11:25:27.818Z,16.00
2022-09-26T11:28:13.187Z,15.10
2022-09-26T11:31:17.956Z,14.38
2022-09-26T11:33:51.111Z,13.73
2022-09-26T11:36:46.926Z,15.23
2022-09-26T11:39:23.138Z,14.88
2022-09-26T11:42:13.870Z,13.80
2022-09-26T11:44:44.121Z,14.20
2022-09-26T11:47:52.392Z,14.10
2022-09-26T11:50:40.189Z,13.80
2022-09-26T11:53:32.489Z,13.75
2022-09-26T11:56:25.123Z,13.93
2022-09-26T11:59:08.426Z,14.82
2022-09-26T12:01:55.951Z,14.30
2022-09-26T12:04:45.345Z,14.10
2022-09-26T12:07:43.673Z,14.90
2022-09-26T12:10:50.763Z,15.30
2022-09-26T12:13:35.315Z,15.25
2022-09-26T12:16:25.849Z,15.70
2022-09-26T12:18:58.540Z,15.65
2022-09-26T12:21:34.195Z,15.57
2022-09-26T12:24:16.343Z,15.50
2022-09-26T12:27:08.877Z,16.25
2022-09-26T12:29:59.378Z,15.45
2022-09-26T12:32:31.228Z,15.40
2022-09-26T12:35:37.600Z,15.20
2022-09-26T12:38:22.260Z,17.98
2022-09-26T12:41:38.461Z,19.13
2022-09-26T12:44:13.822Z,18.65
2022-09-26T12:46:51.777Z,18.85
2022-09-26T12:49:27.187Z,19.27
2022-09-26T12:51:59.170Z,18.90
2022-09-26T12:54:55.139Z,19.02
2022-09-26T12:57:57.283Z,19.23
2022-09-26T13:00:24.983Z,20.10
2022-09-26T13:03:21.246Z,19.15
2022-09-26T13:05:53.878Z,19.00
2022-09-26T13:08:36.858Z,19.23
2022-09-26T13:11:12.622Z,19.15
2022-09-26T13:13:46.065Z,19.58
2022-09-26T13:16:34.140Z,19.48
2022-09-26T13:19:15.398Z,18.23
2022-09-26T13:21:50.833Z,18.95
2022-09-26T13:24:26.290Z,18.73
2022-09-26T13:27:04.897Z,19.25
2022-09-26T13:29:36.578Z,19.55
2022-09-26T13:32:15.242Z,19.30
2022-09-26T13:35:07.810Z,19.52
2022-09-26T13:37:47.933Z,19.48
2022-09-26T13:40:33.152Z,18.70
2022-09-26T13:43:07.525Z,19.48
2022-09-26T13:45:59.060Z,19.08
2022-09-26T13:48:49.111Z,18.83
2022-09-26T13:51:24.771Z,18.83
2022-09-26T13:53:57.729Z,19.27
2022-09-26T13:56:35.027Z,19.33
2022-09-26T13:59:26.162Z,19.23
2022-09-26T14:02:19.840Z,18.42
2022-09-26T14:04:48.466Z,18.38
2022-09-26T14:07:41.221Z,18.40
2022-09-26T14:10:18.568Z,18.77
2022-09-26T14:13:13.341Z,18.88
2022-09-26T14:15:49.230Z,18.90
2022-09-26T14:18:32.598Z,15.93
2022-09-26T14:21:12.825Z,14.35
2022-09-26T14:23:47.667Z,14.70
2022-09-26T14:26:42.095Z,15.30
2022-09-26T14:29:30.395Z,15.05
2022-09-26T14:32:04.383Z,14.95
2022-09-26T14:34:34.106Z,15.60
2022-09-26T14:37:04.441Z,14.80
2022-09-26T14:39:42.095Z,14.80
2022-09-26T14:42:22.438Z,14.77
2022-09-26T14:45:13.572Z,14.43
2022-09-26T14:47:48.542Z,14.40
2022-09-26T14:50:20.464Z,14.10
2022-09-26T14:55:28.254Z,14.80
2022-09-26T14:58:15.440Z,14.73
2022-09-26T15:00:46.478Z,15.10
2022-09-26T15:03:16.511Z,15.20
2022-09-26T15:05:44.785Z,14.95
2022-09-26T15:08:25.378Z,15.18
2022-09-26T15:10:54.159Z,15.18
2022-09-26T15:13:23.389Z,14.40
2022-09-26T15:16:14.311Z,14.98
2022-09-26T15:21:20.000Z,14.70
2022-09-26T15:23:51.279Z,14.93
2022-09-26T15:26:22.070Z,14.82
2022-09-26T15:28:51.177Z,14.55
2022-09-26T15:31:39.502Z,14.50
2022-09-26T15:34:19.259Z,14.30
2022-09-26T15:36:51.064Z,14.40
2022-09-26T15:39:39.826Z,14.35
2022-09-26T15:42:37.698Z,14.15
2022-09-26T15:45:28.764Z,14.13
2022-09-26T15:50:45.024Z,13.40
2022-09-26T15:55:51.731Z,13.80
2022-09-26T15:58:25.059Z,14.40
2022-09-26T16:00:53.162Z,14.82
2022-09-26T16:03:44.818Z,14.60
2022-09-26T16:06:36.433Z,14.60
2022-09-26T16:09:12.573Z,14.20
2022-09-26T16:11:50.173Z,14.18
2022-09-26T16:14:25.708Z,14.18
2022-09-26T16:17:03.859Z,14.35
2022-09-26T16:19:35.018Z,15.00
2022-09-26T16:22:45.830Z,14.48
2022-09-26T16:25:15.401Z,14.60
2022-09-26T16:27:42.865Z,14.55
2022-09-26T16:30:27.890Z,14.13
2022-09-26T16:33:03.938Z,14.27
2022-09-26T16:35:33.536Z,13.48
2022-09-26T16:38:03.378Z,13.68
2022-09-26T16:40:31.899Z,14.18
2022-09-26T16:43:18.994Z,15.50
2022-09-26T16:45:51.351Z,15.02
2022-09-26T16:48:36.460Z,15.40
2022-09-26T16:51:21.423Z,14.10
2022-09-26T16:53:53.460Z,14.07
2022-09-26T16:56:23.679Z,14.27
2022-09-26T16:58:56.643Z,13.90
2022-09-26T17:01:42.155Z,14.20
2022-09-26T17:04:17.940Z,14.13
2022-09-26T17:06:46.104Z,14.50
2022-09-26T17:09:24.606Z,14.30
2022-09-26T17:11:53.302Z,14.32
2022-09-26T17:14:23.461Z,13.35
2022-09-26T17:16:55.174Z,14.13
2022-09-26T17:19:23.907Z,14.07
2022-09-26T17:21:51.447Z,13.55
2022-09-26T17:24:24.925Z,13.40
2022-09-26T17:26:56.330Z,14.23
2022-09-26T17:29:35.499Z,14.13
2022-09-26T17:32:08.847Z,13.55
2022-09-26T17:34:36.789Z,13.77
2022-09-26T17:37:04.020Z,14.27
2022-09-26T17:39:31.071Z,12.55
2022-09-26T17:41:59.305Z,14.40
2022-09-26T17:44:26.054Z,14.60
2022-09-26T17:46:56.359Z,13.73
2022-09-26T17:49:35.848Z,14.10
2022-09-26T17:52:04.411Z,14.32
2022-09-26T17:54:42.648Z,14.32
2022-09-26T17:57:12.913Z,14.07
2022-09-26T17:59:42.155Z,14.73
2022-09-26T18:02:22.569Z,14.52
2022-09-26T18:04:53.366Z,15.10
2022-09-26T18:07:22.093Z,16.33
2022-09-26T18:09:51.304Z,14.70
2022-09-26T18:12:25.498Z,14.27
2022-09-26T18:14:52.483Z,14.10
2022-09-26T18:17:19.338Z,14.50
2022-09-26T18:19:46.975Z,14.85
2022-09-26T18:22:19.079Z,14.88
2022-09-26T18:24:48.839Z,14.63
2022-09-26T18:27:17.835Z,14.60
2022-09-26T18:29:47.885Z,14.38
2022-09-26T18:32:31.786Z,14.27
2022-09-26T18:34:59.937Z,14.23
2022-09-26T18:37:26.784Z,13.98
2022-09-26T18:39:55.673Z,14.25
2022-09-26T18:42:24.598Z,14.63
2022-09-26T18:45:00.681Z,14.60
2022-09-26T18:47:27.353Z,14.25
2022-09-26T18:49:54.015Z,14.13
2022-09-26T18:52:21.779Z,13.80
2022-09-26T18:55:08.355Z,14.30
2022-09-26T18:57:53.570Z,13.75
2022-09-26T19:00:20.225Z,14.50
2022-09-26T19:02:49.369Z,14.13
2022-09-26T19:05:16.730Z,13.77
2022-09-26T19:07:44.962Z,14.02
2022-09-26T19:10:17.345Z,13.52
2022-09-26T19:12:44.260Z,13.60
2022-09-26T19:15:15.457Z,13.88
2022-09-26T19:17:42.247Z,13.57
2022-09-26T19:20:09.775Z,13.50
2022-09-26T19:22:36.402Z,13.50
2022-09-26T19:25:03.210Z,13.82
2022-09-26T19:27:46.321Z,13.77
2022-09-26T19:30:16.957Z,14.07
2022-09-26T19:32:48.252Z,14.75
2022-09-26T19:35:30.404Z,14.05
2022-09-26T19:37:58.413Z,14.45
2022-09-26T19:40:25.795Z,14.23
2022-09-26T19:42:52.673Z,13.75
2022-09-26T19:45:20.079Z,13.80
2022-09-26T19:47:50.093Z,13.77
2022-09-26T19:50:19.891Z,13.85
2022-09-26T19:52:47.668Z,13.73
2022-09-26T19:55:26.507Z,14.15
2022-09-26T19:57:54.424Z,14.10
2022-09-26T20:00:21.257Z,14.10
2022-09-26T20:02:51.529Z,14.07
2022-09-26T20:05:24.073Z,14.02
2022-09-26T20:07:51.462Z,13.52
2022-09-26T20:10:25.352Z,13.50
2022-09-26T20:12:52.305Z,13.52
2022-09-26T20:15:20.454Z,13.68
2022-09-26T20:17:47.697Z,14.10
2022-09-26T20:20:23.350Z,14.15
2022-09-26T20:22:51.531Z,14.60
2022-09-26T20:25:30.376Z,14.05
2022-09-26T20:27:57.858Z,14.40
2022-09-26T20:30:43.770Z,14.30
2022-09-26T20:33:11.391Z,13.98
2022-09-26T20:35:43.410Z,13.90
2022-09-26T20:38:31.446Z,14.00
2022-09-26T20:41:10.668Z,14.00
2022-09-26T20:43:39.704Z,13.40
2022-09-26T20:46:09.543Z,13.60
2022-09-26T20:48:37.729Z,13.00
2022-09-26T20:51:06.102Z,13.32
2022-09-26T20:53:32.751Z,13.35
2022-09-26T20:55:59.361Z,13.23
2022-09-26T20:58:26.034Z,13.18
2022-09-26T21:00:53.464Z,13.57
2022-09-26T21:03:25.679Z,12.68
2022-09-26T21:05:52.542Z,13.02
2022-09-26T21:08:26.582Z,13.35
2022-09-26T21:10:54.250Z,13.30
2022-09-26T21:13:20.879Z,13.35
2022-09-26T21:15:47.601Z,13.75
2022-09-26T21:18:32.641Z,14.38
2022-09-26T21:21:04.485Z,13.80
2022-09-26T21:23:47.578Z,14.00
2022-09-26T21:26:24.720Z,14.43
2022-09-26T21:28:53.957Z,14.38
2022-09-26T21:31:22.685Z,14.65
2022-09-26T21:33:50.183Z,14.32
2022-09-26T21:36:18.182Z,13.65
2022-09-26T21:38:45.351Z,13.75
2022-09-26T21:41:12.576Z,13.60
2022-09-26T21:43:44.582Z,14.20
2022-09-26T21:46:11.380Z,14.05
2022-09-26T21:48:40.504Z,14.43
2022-09-26T21:51:08.494Z,14.65
2022-09-26T21:53:53.276Z,14.52
2022-09-26T21:56:25.997Z,14.30
2022-09-26T21:58:53.055Z,13.70
2022-09-26T22:01:20.573Z,14.02
2022-09-26T22:03:47.282Z,14.30
2022-09-26T22:06:14.014Z,15.05
2022-09-26T22:08:40.926Z,14.63
2022-09-26T22:11:10.500Z,15.10
2022-09-26T22:13:38.366Z,15.32
2022-09-26T22:16:10.773Z,14.57
2022-09-26T22:18:43.815Z,14.40
2022-09-26T22:21:11.376Z,14.60
2022-09-26T22:23:38.717Z,14.65
2022-09-26T22:26:06.059Z,14.45
2022-09-26T22:28:35.417Z,14.45
2022-09-26T22:31:05.466Z,14.70
2022-09-26T22:33:33.314Z,14.40
2022-09-26T22:36:00.300Z,14.20
2022-09-26T22:38:27.038Z,13.93
2022-09-26T22:41:03.264Z,14.45
2022-09-26T22:43:31.293Z,14.18
2022-09-26T22:46:12.795Z,14.60
2022-09-26T22:48:41.999Z,14.52
2022-09-26T22:51:09.822Z,14.23
2022-09-26T22:53:38.108Z,14.27
2022-09-26T22:56:06.643Z,14.57
2022-09-26T22:58:37.002Z,14.57
2022-09-26T23:01:06.519Z,14.25
2022-09-26T23:03:36.082Z,14.27
2022-09-26T23:06:03.943Z,14.00
2022-09-26T23:08:32.311Z,14.15
2022-09-26T23:10:59.165Z,14.13
2022-09-26T23:13:30.008Z,13.82
2022-09-26T23:16:05.502Z,14.00
2022-09-26T23:18:34.817Z,13.55
2022-09-26T23:21:06.965Z,13.60
2022-09-26T23:23:33.784Z,13.80
2022-09-26T23:26:00.768Z,13.50
2022-09-26T23:28:27.676Z,13.60
2022-09-26T23:30:54.629Z,13.10
2022-09-26T23:33:21.466Z,13.50
2022-09-26T23:35:57.116Z,13.38
2022-09-26T23:38:27.414Z,12.80
2022-09-26T23:40:55.106Z,13.15
2022-09-26T23:43:22.012Z,13.40
2022-09-26T23:45:49.485Z,13.77
2022-09-26T23:48:16.342Z,13.20
2022-09-26T23:50:45.308Z,13.00
2022-09-26T23:53:13.055Z,13.30
2022-09-26T23:55:44.484Z,12.98
2022-09-26T23:58:11.777Z,13.05
